N875QS KLAS-CYWG
Flight info
| Callsign | N875QS |
|---|---|
| Flight time | 2h 38m |
| Altitude | 45000 |
| Route | RATPK3 FRNCK DCT MLF J9 FFU DCT BPI DCT MLS DCT ISN DCT SEGAP BEFAN5 |
| Aircraft | C700/M-SBDGHM1RWXY/LB2 |
Departure
| Time | 2026-05-03 23:41 |
|---|---|
| Airport | Harry Reid International Airport (KLAS) |
Arrival
| Time | 2026-05-04 02:19 |
|---|---|
| Airport | Winnipeg / James Armstrong Richardson International Airport (CYWG) |
| Time | Latitude | Longitude | Altitude | Speed | Heading |
|---|---|---|---|---|---|
| 2026-05-03 23:26 | 36.09864 | -115.16098 | 2113 ft | 0 kts | 318° |
| 2026-05-03 23:37 | 36.09863 | -115.16116 | 2113 ft | 4 kts | 208° |
| 2026-05-03 23:38 | 36.09846 | -115.16080 | 2114 ft | 9 kts | 124° |
| 2026-05-03 23:38 | 36.09818 | -115.16032 | 2115 ft | 2 kts | 107° |
| 2026-05-03 23:38 | 36.09820 | -115.15972 | 2119 ft | 11 kts | 40° |
| 2026-05-03 23:38 | 36.09921 | -115.15906 | 2119 ft | 20 kts | 27° |
| 2026-05-03 23:39 | 36.09963 | -115.15835 | 2118 ft | 10 kts | 69° |
| 2026-05-03 23:39 | 36.09986 | -115.15759 | 2117 ft | 14 kts | 70° |
| 2026-05-03 23:39 | 36.09968 | -115.15690 | 2117 ft | 16 kts | 122° |
| 2026-05-03 23:39 | 36.09906 | -115.15683 | 2117 ft | 8 kts | 203° |
| 2026-05-03 23:40 | 36.09904 | -115.15683 | 2117 ft | 0 kts | 203° |
| 2026-05-03 23:40 | 36.09889 | -115.15691 | 2117 ft | 21 kts | 202° |
| 2026-05-03 23:40 | 36.09458 | -115.15934 | 2116 ft | 111 kts | 205° |
| 2026-05-03 23:40 | 36.08555 | -115.16468 | 2376 ft | 164 kts | 206° |
| 2026-05-03 23:41 | 36.07458 | -115.17202 | 3278 ft | 180 kts | 205° |
| 2026-05-03 23:41 | 36.06379 | -115.17989 | 4317 ft | 202 kts | 211° |
| 2026-05-03 23:41 | 36.05545 | -115.19339 | 5121 ft | 193 kts | 249° |
| 2026-05-03 23:41 | 36.05517 | -115.21129 | 5647 ft | 238 kts | 270° |
| 2026-05-03 23:42 | 36.05980 | -115.23078 | 6057 ft | 226 kts | 290° |
| 2026-05-03 23:42 | 36.06757 | -115.24817 | 6047 ft | 238 kts | 292° |
| 2026-05-03 23:42 | 36.07630 | -115.26593 | 5920 ft | 246 kts | 303° |
| 2026-05-03 23:42 | 36.08871 | -115.28051 | 5793 ft | 247 kts | 320° |
| 2026-05-03 23:43 | 36.10352 | -115.28977 | 6090 ft | 228 kts | 338° |
| 2026-05-03 23:43 | 36.11888 | -115.29423 | 6494 ft | 234 kts | 348° |
| 2026-05-03 23:43 | 36.13581 | -115.29482 | 6914 ft | 251 kts | 9° |
| 2026-05-03 23:43 | 36.15208 | -115.28767 | 7344 ft | 248 kts | 31° |
| 2026-05-03 23:44 | 36.16527 | -115.27406 | 7783 ft | 247 kts | 53° |
| 2026-05-03 23:44 | 36.17432 | -115.25593 | 7974 ft | 253 kts | 69° |
| 2026-05-03 23:44 | 36.18059 | -115.23566 | 7991 ft | 250 kts | 74° |
| 2026-05-03 23:44 | 36.18672 | -115.21577 | 7982 ft | 244 kts | 72° |
| 2026-05-03 23:45 | 36.19284 | -115.19685 | 8264 ft | 241 kts | 75° |
| 2026-05-03 23:45 | 36.19620 | -115.17587 | 8556 ft | 260 kts | 93° |
| 2026-05-03 23:45 | 36.19606 | -115.15239 | 9021 ft | 282 kts | 95° |
| 2026-05-03 23:45 | 36.19607 | -115.12762 | 9781 ft | 294 kts | 94° |
| 2026-05-03 23:46 | 36.19620 | -115.10178 | 10437 ft | 309 kts | 94° |
| 2026-05-03 23:46 | 36.19619 | -115.07415 | 11154 ft | 328 kts | 94° |
| 2026-05-03 23:46 | 36.19620 | -115.04584 | 11873 ft | 329 kts | 94° |
| 2026-05-03 23:46 | 36.19623 | -115.01738 | 12602 ft | 331 kts | 94° |
| 2026-05-03 23:47 | 36.19622 | -114.98876 | 13340 ft | 335 kts | 94° |
| 2026-05-03 23:47 | 36.19619 | -114.95968 | 14065 ft | 339 kts | 95° |
| 2026-05-03 23:47 | 36.19624 | -114.93038 | 14776 ft | 343 kts | 94° |
| 2026-05-03 23:47 | 36.19940 | -114.90072 | 15484 ft | 352 kts | 80° |
| 2026-05-03 23:48 | 36.20751 | -114.87172 | 16238 ft | 360 kts | 69° |
| 2026-05-03 23:48 | 36.22046 | -114.84477 | 17006 ft | 370 kts | 56° |
| 2026-05-03 23:48 | 36.23687 | -114.81995 | 17789 ft | 374 kts | 53° |
| 2026-05-03 23:48 | 36.25356 | -114.79499 | 18507 ft | 379 kts | 53° |
| 2026-05-03 23:49 | 36.27044 | -114.76948 | 19216 ft | 386 kts | 52° |
| 2026-05-03 23:49 | 36.28179 | -114.75235 | 19688 ft | 390 kts | 52° |
| 2026-05-03 23:49 | 36.29920 | -114.72617 | 20422 ft | 396 kts | 52° |
| 2026-05-03 23:49 | 36.31686 | -114.69962 | 21171 ft | 402 kts | 51° |
| 2026-05-03 23:50 | 36.33476 | -114.67261 | 21958 ft | 409 kts | 51° |
| 2026-05-03 23:50 | 36.35292 | -114.64517 | 22734 ft | 414 kts | 50° |
| 2026-05-03 23:50 | 36.37263 | -114.61871 | 23478 ft | 422 kts | 40° |
| 2026-05-03 23:50 | 36.39590 | -114.59601 | 24170 ft | 430 kts | 34° |
| 2026-05-03 23:51 | 36.42000 | -114.57335 | 24873 ft | 439 kts | 34° |
| 2026-05-03 23:51 | 36.44443 | -114.55007 | 25584 ft | 446 kts | 33° |
| 2026-05-03 23:51 | 36.46933 | -114.52650 | 26271 ft | 455 kts | 32° |
| 2026-05-03 23:51 | 36.49492 | -114.50230 | 26761 ft | 467 kts | 32° |
| 2026-05-03 23:52 | 36.52084 | -114.47749 | 27302 ft | 472 kts | 33° |
| 2026-05-03 23:52 | 36.54712 | -114.45315 | 27816 ft | 469 kts | 27° |
| 2026-05-03 23:52 | 36.57490 | -114.43185 | 28347 ft | 472 kts | 25° |
| 2026-05-03 23:52 | 36.60313 | -114.41024 | 28890 ft | 481 kts | 25° |
| 2026-05-03 23:53 | 36.63140 | -114.38816 | 29450 ft | 490 kts | 25° |
| 2026-05-03 23:53 | 36.66053 | -114.36541 | 29963 ft | 497 kts | 24° |
| 2026-05-03 23:53 | 36.69000 | -114.34259 | 30438 ft | 499 kts | 24° |
| 2026-05-03 23:53 | 36.71945 | -114.31979 | 30918 ft | 498 kts | 24° |
| 2026-05-03 23:54 | 36.74890 | -114.29690 | 31413 ft | 500 kts | 23° |
| 2026-05-03 23:54 | 36.77850 | -114.27384 | 31942 ft | 504 kts | 23° |
| 2026-05-03 23:54 | 36.80834 | -114.25060 | 32479 ft | 507 kts | 24° |
| 2026-05-03 23:54 | 36.83836 | -114.22720 | 33008 ft | 510 kts | 23° |
| 2026-05-03 23:55 | 36.86845 | -114.20374 | 33540 ft | 511 kts | 23° |
| 2026-05-03 23:55 | 36.89861 | -114.18017 | 34022 ft | 511 kts | 22° |
| 2026-05-03 23:55 | 36.92873 | -114.15660 | 34479 ft | 510 kts | 23° |
| 2026-05-03 23:55 | 36.95874 | -114.13311 | 34961 ft | 508 kts | 23° |
| 2026-05-03 23:56 | 36.98866 | -114.10969 | 35447 ft | 506 kts | 23° |
| 2026-05-03 23:56 | 37.01849 | -114.08632 | 35932 ft | 505 kts | 23° |
| 2026-05-03 23:56 | 37.04825 | -114.06298 | 36472 ft | 505 kts | 24° |
| 2026-05-03 23:56 | 37.07804 | -114.03960 | 36984 ft | 505 kts | 24° |
| 2026-05-03 23:57 | 37.10772 | -114.01619 | 37499 ft | 504 kts | 24° |
| 2026-05-03 23:57 | 37.13732 | -113.99291 | 38050 ft | 502 kts | 23° |
| 2026-05-03 23:57 | 37.16685 | -113.96974 | 38576 ft | 499 kts | 23° |
| 2026-05-03 23:57 | 37.19635 | -113.94649 | 38753 ft | 505 kts | 24° |
| 2026-05-03 23:58 | 37.25686 | -113.89875 | 38771 ft | 523 kts | 24° |
| 2026-05-03 23:58 | 37.31889 | -113.84959 | 39575 ft | 515 kts | 25° |
| 2026-05-03 23:59 | 37.34825 | -113.82603 | 40912 ft | 490 kts | 25° |
| 2026-05-03 23:59 | 37.37692 | -113.80341 | 41425 ft | 484 kts | 25° |
| 2026-05-03 23:59 | 37.40518 | -113.78131 | 41689 ft | 484 kts | 25° |
| 2026-05-03 23:59 | 37.43360 | -113.75877 | 42025 ft | 482 kts | 25° |
| 2026-05-04 00:00 | 37.46195 | -113.73604 | 42222 ft | 483 kts | 25° |
| 2026-05-04 00:00 | 37.49035 | -113.71343 | 42438 ft | 483 kts | 24° |
| 2026-05-04 00:00 | 37.51870 | -113.69097 | 42731 ft | 481 kts | 25° |
| 2026-05-04 00:00 | 37.54694 | -113.66845 | 42987 ft | 480 kts | 25° |
| 2026-05-04 00:01 | 37.57509 | -113.64590 | 43224 ft | 479 kts | 25° |
| 2026-05-04 00:01 | 37.60324 | -113.62342 | 43550 ft | 477 kts | 26° |
| 2026-05-04 00:01 | 37.63125 | -113.60108 | 43790 ft | 476 kts | 26° |
| 2026-05-04 00:01 | 37.65920 | -113.57873 | 44006 ft | 475 kts | 26° |
| 2026-05-04 00:02 | 37.68714 | -113.55633 | 44212 ft | 475 kts | 26° |
| 2026-05-04 00:02 | 37.71502 | -113.53404 | 44406 ft | 474 kts | 26° |
| 2026-05-04 00:02 | 37.74290 | -113.51183 | 44571 ft | 473 kts | 26° |
| 2026-05-04 00:02 | 37.77072 | -113.48961 | 44710 ft | 473 kts | 26° |
| 2026-05-04 00:03 | 37.79855 | -113.46731 | 44813 ft | 474 kts | 26° |
| 2026-05-04 00:03 | 37.82648 | -113.44493 | 44813 ft | 477 kts | 26° |
| 2026-05-04 00:03 | 37.88291 | -113.39971 | 44863 ft | 483 kts | 27° |
| 2026-05-04 00:04 | 37.94002 | -113.35375 | 44850 ft | 489 kts | 27° |
| 2026-05-04 00:04 | 37.99784 | -113.30723 | 44822 ft | 495 kts | 27° |
| 2026-05-04 00:05 | 38.05624 | -113.26009 | 44815 ft | 500 kts | 27° |
| 2026-05-04 00:05 | 38.11524 | -113.21241 | 44828 ft | 505 kts | 27° |
| 2026-05-04 00:06 | 38.17470 | -113.16423 | 44850 ft | 508 kts | 27° |
| 2026-05-04 00:06 | 38.23399 | -113.11613 | 44883 ft | 510 kts | 27° |
| 2026-05-04 00:07 | 38.29376 | -113.06752 | 44913 ft | 510 kts | 27° |
| 2026-05-04 00:07 | 38.35365 | -113.01914 | 44928 ft | 508 kts | 24° |
| 2026-05-04 00:08 | 38.41730 | -112.98245 | 44935 ft | 500 kts | 17° |
| 2026-05-04 00:08 | 38.48136 | -112.94757 | 44932 ft | 500 kts | 17° |
| 2026-05-04 00:09 | 38.54545 | -112.91274 | 44910 ft | 500 kts | 17° |
| 2026-05-04 00:09 | 38.60942 | -112.87785 | 44895 ft | 500 kts | 18° |
| 2026-05-04 00:10 | 38.67339 | -112.84291 | 44827 ft | 500 kts | 18° |
| 2026-05-04 00:10 | 38.73729 | -112.80794 | 44811 ft | 499 kts | 18° |
| 2026-05-04 00:11 | 38.80109 | -112.77296 | 44803 ft | 498 kts | 18° |
| 2026-05-04 00:11 | 38.86479 | -112.73796 | 44808 ft | 498 kts | 18° |
| 2026-05-04 00:12 | 38.92850 | -112.70289 | 44818 ft | 498 kts | 18° |
| 2026-05-04 00:12 | 38.99227 | -112.66772 | 44819 ft | 499 kts | 18° |
| 2026-05-04 00:13 | 39.05604 | -112.63247 | 44817 ft | 499 kts | 18° |
| 2026-05-04 00:13 | 39.11945 | -112.59736 | 44812 ft | 500 kts | 18° |
| 2026-05-04 00:14 | 39.18340 | -112.56188 | 44832 ft | 501 kts | 18° |
| 2026-05-04 00:14 | 39.24742 | -112.52629 | 44832 ft | 501 kts | 18° |
| 2026-05-04 00:15 | 39.31154 | -112.49057 | 44837 ft | 502 kts | 18° |
| 2026-05-04 00:15 | 39.37567 | -112.45478 | 44849 ft | 503 kts | 19° |
| 2026-05-04 00:16 | 39.43990 | -112.41884 | 44838 ft | 503 kts | 18° |
| 2026-05-04 00:16 | 39.50399 | -112.38294 | 44834 ft | 501 kts | 18° |
| 2026-05-04 00:17 | 39.56796 | -112.34700 | 44848 ft | 500 kts | 19° |
| 2026-05-04 00:17 | 39.63174 | -112.31112 | 44841 ft | 499 kts | 19° |
| 2026-05-04 00:18 | 39.69525 | -112.27531 | 44838 ft | 497 kts | 19° |
| 2026-05-04 00:18 | 39.75860 | -112.23952 | 44827 ft | 496 kts | 19° |
| 2026-05-04 00:19 | 39.82142 | -112.20396 | 44844 ft | 495 kts | 19° |
| 2026-05-04 00:19 | 39.88455 | -112.16815 | 44845 ft | 495 kts | 19° |
| 2026-05-04 00:20 | 39.94768 | -112.13226 | 44833 ft | 495 kts | 19° |
| 2026-05-04 00:20 | 40.01072 | -112.09601 | 44823 ft | 495 kts | 19° |
| 2026-05-04 00:21 | 40.07326 | -112.05899 | 44838 ft | 493 kts | 19° |
| 2026-05-04 00:21 | 40.13583 | -112.02249 | 44883 ft | 492 kts | 19° |
| 2026-05-04 00:22 | 40.19824 | -111.98569 | 44900 ft | 492 kts | 19° |
| 2026-05-04 00:22 | 40.26067 | -111.94895 | 44909 ft | 492 kts | 19° |
| 2026-05-04 00:23 | 40.32083 | -111.90531 | 44913 ft | 494 kts | 26° |
| 2026-05-04 00:23 | 40.37992 | -111.86042 | 44907 ft | 493 kts | 26° |
| 2026-05-04 00:24 | 40.43916 | -111.81493 | 44897 ft | 493 kts | 26° |
| 2026-05-04 00:24 | 40.49838 | -111.76951 | 44912 ft | 493 kts | 26° |
| 2026-05-04 00:25 | 40.55757 | -111.72399 | 44921 ft | 493 kts | 26° |
| 2026-05-04 00:25 | 40.61675 | -111.67834 | 44885 ft | 493 kts | 26° |
| 2026-05-04 00:26 | 40.67588 | -111.63270 | 44876 ft | 492 kts | 26° |
| 2026-05-04 00:26 | 40.73481 | -111.58709 | 44860 ft | 490 kts | 26° |
| 2026-05-04 00:27 | 40.79352 | -111.54155 | 44849 ft | 489 kts | 26° |
| 2026-05-04 00:27 | 40.85216 | -111.49599 | 44862 ft | 489 kts | 26° |
| 2026-05-04 00:28 | 40.91042 | -111.45062 | 44867 ft | 489 kts | 26° |
| 2026-05-04 00:28 | 40.96914 | -111.40480 | 44882 ft | 490 kts | 26° |
| 2026-05-04 00:29 | 41.02799 | -111.35878 | 44889 ft | 493 kts | 27° |
| 2026-05-04 00:29 | 41.08709 | -111.31246 | 44940 ft | 494 kts | 27° |
| 2026-05-04 00:30 | 41.14643 | -111.26584 | 44990 ft | 496 kts | 27° |
| 2026-05-04 00:30 | 41.20536 | -111.21948 | 45026 ft | 495 kts | 27° |
| 2026-05-04 00:31 | 41.26446 | -111.17287 | 45052 ft | 493 kts | 27° |
| 2026-05-04 00:31 | 41.32337 | -111.12631 | 45066 ft | 492 kts | 27° |
| 2026-05-04 00:32 | 41.38229 | -111.07965 | 45051 ft | 492 kts | 27° |
| 2026-05-04 00:32 | 41.44120 | -111.03289 | 45017 ft | 493 kts | 27° |
| 2026-05-04 00:33 | 41.52972 | -110.96244 | 44896 ft | 494 kts | 27° |
| 2026-05-04 00:34 | 41.58883 | -110.91527 | 44899 ft | 496 kts | 27° |
| 2026-05-04 00:34 | 41.64807 | -110.86790 | 44898 ft | 497 kts | 27° |
| 2026-05-04 00:35 | 41.70739 | -110.82035 | 44910 ft | 497 kts | 27° |
| 2026-05-04 00:35 | 41.76624 | -110.77306 | 44896 ft | 495 kts | 27° |
| 2026-05-04 00:36 | 41.82500 | -110.72579 | 44890 ft | 490 kts | 27° |
| 2026-05-04 00:36 | 41.88332 | -110.67874 | 44892 ft | 489 kts | 27° |
| 2026-05-04 00:37 | 41.94174 | -110.63152 | 44913 ft | 491 kts | 27° |
| 2026-05-04 00:37 | 41.97105 | -110.60779 | 45042 ft | 492 kts | 27° |
| 2026-05-04 00:37 | 42.00034 | -110.58405 | 45024 ft | 492 kts | 27° |
| 2026-05-04 00:38 | 42.05885 | -110.53654 | 44994 ft | 491 kts | 27° |
| 2026-05-04 00:38 | 42.11739 | -110.48890 | 44958 ft | 492 kts | 27° |
| 2026-05-04 00:39 | 42.17590 | -110.44120 | 44923 ft | 491 kts | 27° |
| 2026-05-04 00:39 | 42.23419 | -110.39355 | 44920 ft | 489 kts | 28° |
| 2026-05-04 00:40 | 42.28239 | -110.35408 | 44925 ft | 487 kts | 28° |
| 2026-05-04 00:40 | 42.34013 | -110.30671 | 44942 ft | 484 kts | 28° |
| 2026-05-04 00:41 | 42.39774 | -110.25931 | 44972 ft | 486 kts | 28° |
| 2026-05-04 00:41 | 42.45556 | -110.21170 | 45017 ft | 487 kts | 28° |
| 2026-05-04 00:42 | 42.51356 | -110.16378 | 45045 ft | 489 kts | 28° |
| 2026-05-04 00:42 | 42.57163 | -110.11571 | 45040 ft | 489 kts | 28° |
| 2026-05-04 00:43 | 42.62690 | -110.06135 | 45041 ft | 491 kts | 33° |
| 2026-05-04 00:43 | 42.68172 | -110.00631 | 45022 ft | 489 kts | 33° |
| 2026-05-04 00:44 | 42.73618 | -109.95118 | 45027 ft | 487 kts | 33° |
| 2026-05-04 00:44 | 42.79046 | -109.89625 | 45041 ft | 485 kts | 33° |
| 2026-05-04 00:45 | 42.84418 | -109.84172 | 45042 ft | 485 kts | 33° |
| 2026-05-04 00:45 | 42.89831 | -109.78666 | 44932 ft | 487 kts | 33° |
| 2026-05-04 00:46 | 42.95263 | -109.73129 | 44934 ft | 488 kts | 33° |
| 2026-05-04 00:46 | 43.00702 | -109.67571 | 44950 ft | 489 kts | 33° |
| 2026-05-04 00:47 | 43.06142 | -109.62000 | 44945 ft | 488 kts | 33° |
| 2026-05-04 00:47 | 43.11560 | -109.56437 | 44945 ft | 487 kts | 33° |
| 2026-05-04 00:48 | 43.16977 | -109.50867 | 44926 ft | 486 kts | 33° |
| 2026-05-04 00:48 | 43.22381 | -109.45292 | 44931 ft | 485 kts | 33° |
| 2026-05-04 00:49 | 43.27774 | -109.39721 | 44926 ft | 485 kts | 33° |
| 2026-05-04 00:49 | 43.33153 | -109.34147 | 44900 ft | 484 kts | 33° |
| 2026-05-04 00:50 | 43.38495 | -109.28605 | 44894 ft | 485 kts | 33° |
| 2026-05-04 00:50 | 43.43876 | -109.23003 | 44881 ft | 485 kts | 33° |
| 2026-05-04 00:51 | 43.49259 | -109.17391 | 44867 ft | 485 kts | 33° |
| 2026-05-04 00:51 | 43.54641 | -109.11765 | 44884 ft | 486 kts | 33° |
| 2026-05-04 00:52 | 43.60029 | -109.06120 | 44862 ft | 487 kts | 33° |
| 2026-05-04 00:52 | 43.65413 | -109.00467 | 44857 ft | 486 kts | 33° |
| 2026-05-04 00:53 | 43.70783 | -108.94812 | 44868 ft | 484 kts | 33° |
| 2026-05-04 00:53 | 43.76134 | -108.89168 | 44875 ft | 483 kts | 33° |
| 2026-05-04 00:54 | 43.81431 | -108.83567 | 44883 ft | 482 kts | 33° |
| 2026-05-04 00:54 | 43.86788 | -108.77890 | 44864 ft | 482 kts | 33° |
| 2026-05-04 00:55 | 43.92078 | -108.72271 | 44875 ft | 483 kts | 33° |
| 2026-05-04 00:55 | 43.97448 | -108.66553 | 44862 ft | 484 kts | 33° |
| 2026-05-04 00:56 | 44.02757 | -108.60887 | 44865 ft | 485 kts | 33° |
| 2026-05-04 00:56 | 44.08112 | -108.55159 | 44861 ft | 486 kts | 34° |
| 2026-05-04 00:57 | 44.13471 | -108.49412 | 44852 ft | 487 kts | 34° |
| 2026-05-04 00:57 | 44.18825 | -108.43657 | 44855 ft | 486 kts | 34° |
| 2026-05-04 00:58 | 44.24165 | -108.37905 | 44845 ft | 484 kts | 34° |
| 2026-05-04 00:58 | 44.29490 | -108.32155 | 44831 ft | 483 kts | 34° |
| 2026-05-04 00:59 | 44.34801 | -108.26406 | 44854 ft | 482 kts | 34° |
| 2026-05-04 00:59 | 44.40100 | -108.20657 | 44860 ft | 481 kts | 34° |
| 2026-05-04 01:00 | 44.45386 | -108.14908 | 44868 ft | 480 kts | 34° |
| 2026-05-04 01:00 | 44.50656 | -108.09164 | 44867 ft | 480 kts | 34° |
| 2026-05-04 01:01 | 44.55891 | -108.03445 | 44879 ft | 481 kts | 34° |
| 2026-05-04 01:01 | 44.61177 | -107.97656 | 44865 ft | 483 kts | 34° |
| 2026-05-04 01:02 | 44.66481 | -107.91834 | 44853 ft | 485 kts | 34° |
| 2026-05-04 01:02 | 44.71802 | -107.85976 | 44855 ft | 486 kts | 34° |
| 2026-05-04 01:03 | 44.77120 | -107.80112 | 44872 ft | 485 kts | 34° |
| 2026-05-04 01:03 | 44.82414 | -107.74256 | 44887 ft | 482 kts | 34° |
| 2026-05-04 01:04 | 44.87674 | -107.68427 | 44873 ft | 479 kts | 34° |
| 2026-05-04 01:04 | 44.92912 | -107.62606 | 44869 ft | 479 kts | 34° |
| 2026-05-04 01:05 | 44.98117 | -107.56815 | 44867 ft | 480 kts | 34° |
| 2026-05-04 01:05 | 45.03361 | -107.50955 | 44851 ft | 482 kts | 34° |
| 2026-05-04 01:06 | 45.08628 | -107.45065 | 44847 ft | 483 kts | 34° |
| 2026-05-04 01:06 | 45.13904 | -107.39144 | 44843 ft | 484 kts | 34° |
| 2026-05-04 01:07 | 45.19173 | -107.33220 | 44837 ft | 482 kts | 34° |
| 2026-05-04 01:07 | 45.24416 | -107.27309 | 44834 ft | 480 kts | 34° |
| 2026-05-04 01:08 | 45.29634 | -107.21414 | 44828 ft | 479 kts | 34° |
| 2026-05-04 01:08 | 45.34836 | -107.15520 | 44822 ft | 477 kts | 34° |
| 2026-05-04 01:09 | 45.40027 | -107.09629 | 44825 ft | 478 kts | 34° |
| 2026-05-04 01:09 | 45.45196 | -107.03744 | 44826 ft | 480 kts | 34° |
| 2026-05-04 01:10 | 45.50424 | -106.97780 | 44828 ft | 482 kts | 34° |
| 2026-05-04 01:10 | 45.55672 | -106.91778 | 44826 ft | 484 kts | 34° |
| 2026-05-04 01:11 | 45.60907 | -106.85774 | 44821 ft | 482 kts | 34° |
| 2026-05-04 01:11 | 45.66119 | -106.79784 | 44813 ft | 480 kts | 34° |
| 2026-05-04 01:12 | 45.71314 | -106.73798 | 44806 ft | 478 kts | 34° |
| 2026-05-04 01:12 | 45.76481 | -106.67831 | 44802 ft | 477 kts | 34° |
| 2026-05-04 01:13 | 45.81652 | -106.61842 | 44807 ft | 479 kts | 34° |
| 2026-05-04 01:13 | 45.86837 | -106.55823 | 44806 ft | 480 kts | 34° |
| 2026-05-04 01:14 | 45.92032 | -106.49780 | 44801 ft | 481 kts | 35° |
| 2026-05-04 01:14 | 45.97228 | -106.43716 | 44797 ft | 482 kts | 35° |
| 2026-05-04 01:15 | 46.02438 | -106.37625 | 44799 ft | 482 kts | 35° |
| 2026-05-04 01:15 | 46.07617 | -106.31550 | 44787 ft | 478 kts | 35° |
| 2026-05-04 01:16 | 46.12755 | -106.25513 | 44780 ft | 475 kts | 35° |
| 2026-05-04 01:16 | 46.17874 | -106.19482 | 44776 ft | 476 kts | 35° |
| 2026-05-04 01:17 | 46.23012 | -106.13414 | 44775 ft | 478 kts | 35° |
| 2026-05-04 01:17 | 46.28168 | -106.07308 | 44780 ft | 480 kts | 35° |
| 2026-05-04 01:18 | 46.33288 | -106.01229 | 44774 ft | 479 kts | 35° |
| 2026-05-04 01:18 | 46.38433 | -105.95118 | 44772 ft | 477 kts | 34° |
| 2026-05-04 01:19 | 46.43665 | -105.89243 | 44778 ft | 476 kts | 33° |
| 2026-05-04 01:19 | 46.48876 | -105.83346 | 44782 ft | 475 kts | 33° |
| 2026-05-04 01:20 | 46.54085 | -105.77464 | 44767 ft | 473 kts | 33° |
| 2026-05-04 01:20 | 46.59263 | -105.71587 | 44762 ft | 471 kts | 33° |
| 2026-05-04 01:21 | 46.64427 | -105.65720 | 44754 ft | 471 kts | 33° |
| 2026-05-04 01:21 | 46.69595 | -105.59830 | 44760 ft | 473 kts | 33° |
| 2026-05-04 01:22 | 46.74786 | -105.53900 | 44759 ft | 475 kts | 33° |
| 2026-05-04 01:22 | 46.79980 | -105.47950 | 44756 ft | 474 kts | 33° |
| 2026-05-04 01:23 | 46.85122 | -105.42046 | 44751 ft | 472 kts | 33° |
| 2026-05-04 01:23 | 46.90278 | -105.36111 | 44748 ft | 471 kts | 34° |
| 2026-05-04 01:24 | 46.95415 | -105.30184 | 44763 ft | 469 kts | 33° |
| 2026-05-04 01:24 | 47.00542 | -105.24252 | 44752 ft | 470 kts | 33° |
| 2026-05-04 01:25 | 47.05666 | -105.18309 | 44748 ft | 469 kts | 33° |
| 2026-05-04 01:25 | 47.10780 | -105.12363 | 44742 ft | 469 kts | 34° |
| 2026-05-04 01:26 | 47.15890 | -105.06407 | 44739 ft | 469 kts | 34° |
| 2026-05-04 01:26 | 47.20994 | -105.00442 | 44733 ft | 469 kts | 34° |
| 2026-05-04 01:27 | 47.26110 | -104.94448 | 44725 ft | 471 kts | 33° |
| 2026-05-04 01:27 | 47.31235 | -104.88429 | 44730 ft | 472 kts | 34° |
| 2026-05-04 01:28 | 47.36368 | -104.82384 | 44725 ft | 473 kts | 34° |
| 2026-05-04 01:28 | 47.41474 | -104.76356 | 44723 ft | 473 kts | 34° |
| 2026-05-04 01:29 | 47.46625 | -104.70259 | 44708 ft | 475 kts | 34° |
| 2026-05-04 01:29 | 47.51789 | -104.64129 | 44701 ft | 476 kts | 34° |
| 2026-05-04 01:30 | 47.56077 | -104.59029 | 44688 ft | 475 kts | 34° |
| 2026-05-04 01:30 | 47.61222 | -104.52895 | 44668 ft | 474 kts | 34° |
| 2026-05-04 01:31 | 47.66343 | -104.46770 | 44663 ft | 472 kts | 34° |
| 2026-05-04 01:31 | 47.71446 | -104.40657 | 44666 ft | 471 kts | 34° |
| 2026-05-04 01:32 | 47.76558 | -104.34543 | 44660 ft | 473 kts | 34° |
| 2026-05-04 01:32 | 47.81664 | -104.28328 | 44683 ft | 475 kts | 34° |
| 2026-05-04 01:33 | 47.86821 | -104.22148 | 44679 ft | 477 kts | 34° |
| 2026-05-04 01:33 | 47.91975 | -104.15877 | 44676 ft | 478 kts | 34° |
| 2026-05-04 01:34 | 47.97131 | -104.09631 | 44661 ft | 477 kts | 34° |
| 2026-05-04 01:34 | 48.02233 | -104.03413 | 44653 ft | 476 kts | 34° |
| 2026-05-04 01:35 | 48.07352 | -103.97164 | 44641 ft | 475 kts | 34° |
| 2026-05-04 01:35 | 48.12464 | -103.90907 | 44630 ft | 474 kts | 34° |
| 2026-05-04 01:36 | 48.17565 | -103.84646 | 44628 ft | 474 kts | 34° |
| 2026-05-04 01:36 | 48.22674 | -103.78360 | 44629 ft | 476 kts | 35° |
| 2026-05-04 01:37 | 48.27230 | -103.71040 | 44636 ft | 487 kts | 50° |
| 2026-05-04 01:37 | 48.31111 | -103.62671 | 44634 ft | 489 kts | 50° |
| 2026-05-04 01:38 | 48.35015 | -103.54282 | 44636 ft | 491 kts | 51° |
| 2026-05-04 01:38 | 48.38917 | -103.45832 | 44634 ft | 492 kts | 51° |
| 2026-05-04 01:39 | 48.42791 | -103.37440 | 44622 ft | 491 kts | 51° |
| 2026-05-04 01:39 | 48.46676 | -103.28984 | 44617 ft | 490 kts | 51° |
| 2026-05-04 01:40 | 48.50541 | -103.20554 | 44607 ft | 488 kts | 51° |
| 2026-05-04 01:40 | 48.54390 | -103.12128 | 44606 ft | 487 kts | 51° |
| 2026-05-04 01:41 | 48.58227 | -103.03703 | 44601 ft | 487 kts | 51° |
| 2026-05-04 01:41 | 48.62046 | -102.95290 | 44607 ft | 485 kts | 51° |
| 2026-05-04 01:42 | 48.65857 | -102.86871 | 44609 ft | 486 kts | 51° |
| 2026-05-04 01:42 | 48.69674 | -102.78413 | 44602 ft | 487 kts | 51° |
| 2026-05-04 01:43 | 48.73495 | -102.69917 | 44599 ft | 489 kts | 51° |
| 2026-05-04 01:43 | 48.77324 | -102.61379 | 44592 ft | 490 kts | 51° |
| 2026-05-04 01:44 | 48.81156 | -102.52804 | 44597 ft | 492 kts | 51° |
| 2026-05-04 01:44 | 48.84987 | -102.44203 | 44581 ft | 491 kts | 51° |
| 2026-05-04 01:45 | 48.88771 | -102.35683 | 44578 ft | 488 kts | 51° |
| 2026-05-04 01:45 | 48.94438 | -102.22870 | 44565 ft | 485 kts | 51° |
| 2026-05-04 01:46 | 48.98190 | -102.14357 | 44562 ft | 484 kts | 51° |
| 2026-05-04 01:46 | 49.01943 | -102.05811 | 44565 ft | 486 kts | 51° |
| 2026-05-04 01:47 | 49.05709 | -101.97209 | 44595 ft | 489 kts | 51° |
| 2026-05-04 01:47 | 49.09485 | -101.88556 | 44585 ft | 491 kts | 51° |
| 2026-05-04 01:48 | 49.13262 | -101.79870 | 44586 ft | 490 kts | 52° |
| 2026-05-04 01:48 | 49.17019 | -101.71204 | 44586 ft | 488 kts | 52° |
| 2026-05-04 01:49 | 49.20752 | -101.62566 | 44590 ft | 486 kts | 52° |
| 2026-05-04 01:49 | 49.24466 | -101.53946 | 44593 ft | 485 kts | 52° |
| 2026-05-04 01:50 | 49.28181 | -101.45294 | 44599 ft | 487 kts | 52° |
| 2026-05-04 01:50 | 49.31904 | -101.36595 | 44601 ft | 489 kts | 52° |
| 2026-05-04 01:51 | 49.35604 | -101.27921 | 44600 ft | 490 kts | 52° |
| 2026-05-04 01:51 | 49.39340 | -101.19133 | 44612 ft | 492 kts | 52° |
| 2026-05-04 01:52 | 49.43073 | -101.10322 | 44603 ft | 491 kts | 52° |
| 2026-05-04 01:52 | 49.46789 | -101.01526 | 44592 ft | 489 kts | 53° |
| 2026-05-04 01:53 | 49.50479 | -100.92760 | 44584 ft | 487 kts | 53° |
| 2026-05-04 01:53 | 49.54152 | -100.84007 | 44583 ft | 487 kts | 53° |
| 2026-05-04 01:54 | 49.57827 | -100.75220 | 44589 ft | 489 kts | 53° |
| 2026-05-04 01:54 | 49.61510 | -100.66383 | 44594 ft | 491 kts | 53° |
| 2026-05-04 01:55 | 49.65204 | -100.57492 | 44584 ft | 493 kts | 53° |
| 2026-05-04 01:55 | 49.68903 | -100.48557 | 44542 ft | 494 kts | 53° |
| 2026-05-04 01:56 | 49.70761 | -100.44060 | 43885 ft | 498 kts | 53° |
| 2026-05-04 01:56 | 49.72591 | -100.39618 | 43238 ft | 495 kts | 53° |
| 2026-05-04 01:56 | 49.74425 | -100.35153 | 42590 ft | 488 kts | 53° |
| 2026-05-04 01:56 | 49.76231 | -100.30756 | 41954 ft | 480 kts | 53° |
| 2026-05-04 01:57 | 49.78009 | -100.26426 | 41325 ft | 473 kts | 52° |
| 2026-05-04 01:57 | 49.79756 | -100.22162 | 40718 ft | 467 kts | 52° |
| 2026-05-04 01:57 | 49.81493 | -100.17917 | 40104 ft | 465 kts | 52° |
| 2026-05-04 01:57 | 49.83222 | -100.13684 | 39499 ft | 466 kts | 52° |
| 2026-05-04 01:58 | 49.84962 | -100.09418 | 38887 ft | 471 kts | 52° |
| 2026-05-04 01:58 | 49.86725 | -100.05092 | 38265 ft | 479 kts | 51° |
| 2026-05-04 01:58 | 49.88355 | -100.00523 | 37577 ft | 492 kts | 59° |
| 2026-05-04 01:58 | 49.89568 | -99.95498 | 36910 ft | 504 kts | 69° |
| 2026-05-04 01:59 | 49.90305 | -99.90129 | 36244 ft | 515 kts | 78° |
| 2026-05-04 01:59 | 49.90512 | -99.84534 | 35565 ft | 525 kts | 88° |
| 2026-05-04 01:59 | 49.90280 | -99.78847 | 34876 ft | 531 kts | 92° |
| 2026-05-04 01:59 | 49.89997 | -99.73113 | 34172 ft | 535 kts | 92° |
| 2026-05-04 02:00 | 49.89722 | -99.67342 | 33446 ft | 538 kts | 92° |
| 2026-05-04 02:00 | 49.89452 | -99.61540 | 32695 ft | 539 kts | 92° |
| 2026-05-04 02:00 | 49.89175 | -99.55737 | 32010 ft | 540 kts | 92° |
| 2026-05-04 02:00 | 49.88887 | -99.49920 | 31263 ft | 542 kts | 93° |
| 2026-05-04 02:01 | 49.88596 | -99.44077 | 30540 ft | 545 kts | 93° |
| 2026-05-04 02:01 | 49.88306 | -99.38202 | 29818 ft | 548 kts | 93° |
| 2026-05-04 02:01 | 49.88010 | -99.32293 | 29046 ft | 550 kts | 94° |
| 2026-05-04 02:01 | 49.87709 | -99.26417 | 28319 ft | 543 kts | 94° |
| 2026-05-04 02:02 | 49.87411 | -99.20635 | 27607 ft | 534 kts | 94° |
| 2026-05-04 02:02 | 49.87117 | -99.14947 | 26915 ft | 525 kts | 94° |
| 2026-05-04 02:02 | 49.86826 | -99.09363 | 26237 ft | 516 kts | 94° |
| 2026-05-04 02:02 | 49.86538 | -99.03926 | 25562 ft | 509 kts | 94° |
| 2026-05-04 02:03 | 49.86248 | -98.98493 | 24896 ft | 502 kts | 94° |
| 2026-05-04 02:03 | 49.85960 | -98.93131 | 24236 ft | 496 kts | 94° |
| 2026-05-04 02:03 | 49.85673 | -98.87830 | 23589 ft | 490 kts | 95° |
| 2026-05-04 02:03 | 49.85386 | -98.82598 | 22911 ft | 484 kts | 93° |
| 2026-05-04 02:04 | 49.85101 | -98.77428 | 22261 ft | 479 kts | 94° |
| 2026-05-04 02:04 | 49.84816 | -98.72304 | 21627 ft | 476 kts | 94° |
| 2026-05-04 02:04 | 49.84530 | -98.67198 | 20995 ft | 474 kts | 94° |
| 2026-05-04 02:04 | 49.84244 | -98.62129 | 20370 ft | 472 kts | 94° |
| 2026-05-04 02:05 | 49.83956 | -98.57080 | 19756 ft | 468 kts | 94° |
| 2026-05-04 02:05 | 49.83670 | -98.52085 | 19138 ft | 463 kts | 94° |
| 2026-05-04 02:05 | 49.83383 | -98.47138 | 18535 ft | 459 kts | 94° |
| 2026-05-04 02:05 | 49.83098 | -98.42240 | 17934 ft | 454 kts | 94° |
| 2026-05-04 02:06 | 49.82814 | -98.37391 | 17298 ft | 450 kts | 95° |
| 2026-05-04 02:06 | 49.82532 | -98.32601 | 16849 ft | 441 kts | 95° |
| 2026-05-04 02:06 | 49.82255 | -98.27966 | 16604 ft | 426 kts | 95° |
| 2026-05-04 02:06 | 49.81986 | -98.23476 | 16065 ft | 410 kts | 95° |
| 2026-05-04 02:07 | 49.81726 | -98.19160 | 15537 ft | 396 kts | 95° |
| 2026-05-04 02:07 | 49.81473 | -98.14978 | 15032 ft | 384 kts | 96° |
| 2026-05-04 02:07 | 49.81225 | -98.10914 | 14519 ft | 374 kts | 96° |
| 2026-05-04 02:07 | 49.80982 | -98.06955 | 14031 ft | 365 kts | 97° |
| 2026-05-04 02:08 | 49.80744 | -98.03094 | 13556 ft | 357 kts | 97° |
| 2026-05-04 02:08 | 49.80509 | -97.99308 | 13069 ft | 349 kts | 97° |
| 2026-05-04 02:08 | 49.80338 | -97.95598 | 12641 ft | 342 kts | 95° |
| 2026-05-04 02:08 | 49.80156 | -97.91940 | 12247 ft | 341 kts | 96° |
| 2026-05-04 02:09 | 49.79959 | -97.88279 | 11852 ft | 342 kts | 95° |
| 2026-05-04 02:09 | 49.79777 | -97.84598 | 11453 ft | 343 kts | 95° |
| 2026-05-04 02:09 | 49.79603 | -97.80921 | 11062 ft | 341 kts | 94° |
| 2026-05-04 02:09 | 49.79423 | -97.77280 | 10659 ft | 337 kts | 94° |
| 2026-05-04 02:10 | 49.79240 | -97.73683 | 10269 ft | 333 kts | 94° |
| 2026-05-04 02:10 | 49.79062 | -97.70179 | 9916 ft | 329 kts | 94° |
| 2026-05-04 02:10 | 49.78885 | -97.66656 | 9517 ft | 327 kts | 94° |
| 2026-05-04 02:10 | 49.78704 | -97.63113 | 9107 ft | 324 kts | 93° |
| 2026-05-04 02:11 | 49.78529 | -97.59697 | 8717 ft | 322 kts | 92° |
| 2026-05-04 02:11 | 49.78348 | -97.56208 | 8347 ft | 320 kts | 92° |
| 2026-05-04 02:11 | 49.78112 | -97.52831 | 7981 ft | 320 kts | 94° |
| 2026-05-04 02:11 | 49.77890 | -97.49352 | 7574 ft | 321 kts | 92° |
| 2026-05-04 02:12 | 49.77680 | -97.45968 | 7204 ft | 320 kts | 92° |
| 2026-05-04 02:12 | 49.77453 | -97.42579 | 6831 ft | 313 kts | 92° |
| 2026-05-04 02:12 | 49.77224 | -97.39275 | 6469 ft | 304 kts | 92° |
| 2026-05-04 02:12 | 49.77007 | -97.36056 | 6120 ft | 297 kts | 91° |
| 2026-05-04 02:13 | 49.76796 | -97.32906 | 5770 ft | 292 kts | 91° |
| 2026-05-04 02:13 | 49.76459 | -97.29832 | 5420 ft | 290 kts | 103° |
| 2026-05-04 02:13 | 49.75663 | -97.26999 | 5157 ft | 285 kts | 115° |
| 2026-05-04 02:13 | 49.74773 | -97.24302 | 4903 ft | 279 kts | 114° |
| 2026-05-04 02:14 | 49.73909 | -97.21649 | 4677 ft | 273 kts | 113° |
| 2026-05-04 02:14 | 49.73216 | -97.18992 | 4424 ft | 260 kts | 95° |
| 2026-05-04 02:14 | 49.73176 | -97.16309 | 4196 ft | 242 kts | 73° |
| 2026-05-04 02:14 | 49.73828 | -97.14103 | 3905 ft | 216 kts | 36° |
| 2026-05-04 02:15 | 49.74962 | -97.12721 | 3687 ft | 203 kts | 23° |
| 2026-05-04 02:15 | 49.76199 | -97.11744 | 3473 ft | 199 kts | 12° |
| 2026-05-04 02:15 | 49.77515 | -97.11184 | 3250 ft | 193 kts | 1° |
| 2026-05-04 02:15 | 49.78816 | -97.11059 | 3039 ft | 185 kts | 350° |
| 2026-05-04 02:16 | 49.80080 | -97.11335 | 2840 ft | 178 kts | 340° |
| 2026-05-04 02:16 | 49.81237 | -97.11967 | 2642 ft | 176 kts | 333° |
| 2026-05-04 02:16 | 49.82264 | -97.12912 | 2448 ft | 173 kts | 323° |
| 2026-05-04 02:16 | 49.83158 | -97.14087 | 2392 ft | 163 kts | 317° |
| 2026-05-04 02:17 | 49.83983 | -97.15201 | 2378 ft | 153 kts | 317° |
| 2026-05-04 02:17 | 49.84758 | -97.16271 | 2333 ft | 149 kts | 317° |
| 2026-05-04 02:17 | 49.85526 | -97.17326 | 2034 ft | 144 kts | 318° |
| 2026-05-04 02:17 | 49.86249 | -97.18310 | 1729 ft | 133 kts | 319° |
| 2026-05-04 02:18 | 49.86897 | -97.19192 | 1434 ft | 115 kts | 317° |
| 2026-05-04 02:18 | 49.87428 | -97.19916 | 1304 ft | 92 kts | 315° |
| 2026-05-04 02:18 | 49.87942 | -97.20611 | 1203 ft | 111 kts | 315° |
| 2026-05-04 02:18 | 49.88543 | -97.21436 | 1112 ft | 107 kts | 326° |
| 2026-05-04 02:19 | 49.88969 | -97.22307 | 876 ft | 105 kts | 313° |
| 2026-05-04 02:19 | 49.89118 | -97.22682 | 778 ft | 0 kts | 258° |
| 2026-05-04 02:20 | 49.89119 | -97.22682 | 778 ft | 0 kts | 258° |
| 2026-05-04 02:20 | 49.89119 | -97.22681 | 778 ft | 0 kts | 258° |
| 2026-05-04 02:24 | 49.89119 | -97.22680 | 778 ft | 0 kts | 261° |
| 2026-05-04 02:28 | 49.89119 | -97.22679 | 778 ft | 0 kts | 264° |
| 2026-05-04 02:29 | 49.90106 | -97.23042 | 779 ft | 0 kts | 220° |